Time;durP1;ratioP1;P1;durP2;ratioP2;P2;SDS_P1;SDS_P2;PMS_P1;PMS_P2;Temp;Humidity;BMP_temperature;BMP_pressure;BME280_temperature;BME280_humidity;BME280_pressure;Samples;Min_cycle;Max_cycle;Signal;HPM_P1;HPM_P2
2023/01/12 00:01:27;;;;;;;2.47;1.00;;;9.40;99.90;;;;;;5082237;28;20453;-40
2023/01/12 00:03:53;;;;;;;5.80;1.08;;;9.40;99.90;;;;;;5083370;28;20550;-37
2023/01/12 00:06:20;;;;;;;3.53;1.13;;;9.50;99.90;;;;;;5082653;28;20064;-38
2023/01/12 00:08:46;;;;;;;3.67;1.15;;;9.40;99.90;;;;;;5082650;28;20024;-40
2023/01/12 00:11:14;;;;;;;1.88;1.05;;;9.40;99.90;;;;;;5082282;28;20022;-38
2023/01/12 00:13:40;;;;;;;4.28;1.00;;;9.50;99.90;;;;;;5082107;28;20041;-39
2023/01/12 00:18:50;;;;;;;4.93;1.40;;;9.50;99.90;;;;;;5082736;28;20055;-36
2023/01/12 00:21:16;;;;;;;3.20;1.30;;;9.50;99.90;;;;;;5082142;28;20705;-37
2023/01/12 00:23:42;;;;;;;5.55;1.33;;;9.50;99.90;;;;;;5082782;28;20024;-39
2023/01/12 00:26:08;;;;;;;5.55;1.40;;;9.50;99.90;;;;;;5082311;28;20519;-37
2023/01/12 00:28:35;;;;;;;4.93;1.50;;;9.50;99.90;;;;;;5083015;28;20023;-36
2023/01/12 00:31:01;;;;;;;5.72;1.58;;;9.50;99.90;;;;;;5082610;28;20024;-37
2023/01/12 00:33:27;;;;;;;4.57;1.45;;;9.50;99.90;;;;;;5083128;28;20052;-38
2023/01/12 00:35:53;;;;;;;7.32;1.98;;;9.50;99.90;;;;;;5082216;28;20055;-38
2023/01/12 00:38:18;;;;;;;8.82;2.10;;;9.60;99.90;;;;;;5082261;28;20043;-38
2023/01/12 00:40:44;;;;;;;6.13;1.80;;;9.60;99.90;;;;;;5082204;28;20062;-39
2023/01/12 00:45:53;;;;;;;5.57;1.75;;;9.60;99.90;;;;;;5086165;28;20123;-38
2023/01/12 00:48:19;;;;;;;5.63;1.90;;;9.60;99.90;;;;;;5086704;28;20115;-39
2023/01/12 00:50:48;;;;;;;6.38;1.60;;;9.60;99.90;;;;;;5085825;28;20111;-38
2023/01/12 00:53:13;;;;;;;8.07;2.30;;;9.60;99.90;;;;;;5065496;28;20832;-39
2023/01/12 00:55:39;;;;;;;4.15;1.70;;;9.60;99.90;;;;;;5080085;28;20054;-38
2023/01/12 00:58:05;;;;;;;9.27;2.55;;;9.60;99.90;;;;;;5086079;28;20090;-39
2023/01/12 01:00:30;;;;;;;7.68;2.00;;;9.60;99.90;;;;;;5086392;28;20460;-38
2023/01/12 01:02:56;;;;;;;8.00;2.15;;;9.60;99.90;;;;;;5086323;28;20031;-38
2023/01/12 01:05:22;;;;;;;7.03;2.03;;;9.60;99.90;;;;;;5085525;28;20027;-39
2023/01/12 01:07:48;;;;;;;5.07;2.10;;;9.60;99.90;;;;;;5086554;28;20038;-37
2023/01/12 01:10:15;;;;;;;7.95;1.70;;;9.60;99.90;;;;;;5085500;28;20023;-37
2023/01/12 01:12:41;;;;;;;10.52;2.50;;;9.60;99.90;;;;;;5086363;28;20455;-36
2023/01/12 01:15:07;;;;;;;7.60;2.60;;;9.60;99.90;;;;;;5085832;28;20020;-35
2023/01/12 01:17:33;;;;;;;13.00;2.97;;;9.60;99.90;;;;;;5085351;28;20046;-38
2023/01/12 01:20:00;;;;;;;9.75;3.30;;;9.60;99.90;;;;;;5085488;28;20081;-36
2023/01/12 01:22:25;;;;;;;13.20;3.35;;;9.60;99.90;;;;;;5086405;28;20028;-38
2023/01/12 01:24:54;;;;;;;11.15;3.28;;;9.60;99.90;;;;;;5086156;28;20032;-34
2023/01/12 01:27:19;;;;;;;11.25;3.35;;;9.60;99.90;;;;;;5085522;28;20558;-35
2023/01/12 01:29:45;;;;;;;10.35;3.08;;;9.60;99.90;;;;;;5085862;28;20035;-39
2023/01/12 01:32:10;;;;;;;11.90;3.08;;;9.60;99.90;;;;;;5084154;28;20059;-37
2023/01/12 01:34:36;;;;;;;13.80;3.70;;;9.60;99.90;;;;;;5085713;28;20028;-39
2023/01/12 01:37:01;;;;;;;10.13;3.28;;;9.60;99.90;;;;;;5084682;28;20032;-39
2023/01/12 01:39:27;;;;;;;9.35;2.92;;;9.60;99.90;;;;;;5085208;28;20020;-38
2023/01/12 01:41:53;;;;;;;7.70;2.50;;;9.70;99.90;;;;;;5086086;28;20020;-38
2023/01/12 01:44:30;;;;;;;8.57;2.70;;;9.70;99.90;;;;;;5085525;28;20495;-36
2023/01/12 01:47:01;;;;;;;9.73;2.42;;;9.70;99.90;;;;;;5085746;28;20032;-39
2023/01/12 01:49:44;;;;;;;8.02;2.40;;;9.70;99.90;;;;;;5086125;28;20028;-39
2023/01/12 01:52:11;;;;;;;;;;;9.70;99.90;;;;;;5085545;28;20028;-38
2023/01/12 01:54:43;;;;;;;8.57;2.35;;;9.70;99.90;;;;;;5085925;28;19931;-38
2023/01/12 01:57:12;;;;;;;12.35;2.63;;;9.70;99.90;;;;;;5084751;28;20042;-36
2023/01/12 01:59:41;;;;;;;8.48;2.33;;;9.60;99.90;;;;;;5085114;28;20107;-38
2023/01/12 02:02:07;;;;;;;9.18;2.20;;;9.60;99.90;;;;;;5084900;28;20043;-39
2023/01/12 02:04:33;;;;;;;7.80;2.35;;;9.70;99.90;;;;;;5084941;28;20111;-39
2023/01/12 02:07:01;;;;;;;7.32;2.42;;;9.70;99.90;;;;;;5084300;28;20093;-38
2023/01/12 02:09:36;;;;;;;12.00;3.38;;;9.70;99.90;;;;;;5085374;28;20060;-39
2023/01/12 02:17:48;;;;;;;7.10;2.25;;;9.70;99.90;;;;;;5084854;28;20042;-40
2023/01/12 02:20:19;;;;;;;6.80;2.08;;;9.70;99.90;;;;;;5083849;28;20044;-38
2023/01/12 02:23:03;;;;;;;5.25;2.17;;;9.60;99.90;;;;;;5084253;28;20028;-39
2023/01/12 02:25:58;;;;;;;8.10;2.08;;;9.60;99.90;;;;;;5085417;28;20035;-37
2023/01/12 02:29:04;;;;;;;6.07;2.10;;;9.60;99.90;;;;;;5084206;28;20119;-38
2023/01/12 02:32:01;;;;;;;6.93;2.00;;;9.60;99.90;;;;;;5064428;28;20032;-38
2023/01/12 02:34:46;;;;;;;6.53;1.88;;;9.60;99.90;;;;;;5081835;28;20562;-39
2023/01/12 02:37:54;;;;;;;7.47;2.15;;;9.60;99.90;;;;;;5084219;28;20093;-37
2023/01/12 02:40:24;;;;;;;4.82;1.52;;;9.60;99.90;;;;;;5083614;28;20082;-39
2023/01/12 02:42:58;;;;;;;6.30;2.10;;;9.60;99.90;;;;;;5083923;28;20114;-40
2023/01/12 02:45:24;;;;;;;6.97;2.15;;;9.60;99.90;;;;;;5084053;28;20370;-38
2023/01/12 02:47:57;;;;;;;8.18;2.30;;;9.60;99.90;;;;;;5084127;28;20048;-37
2023/01/12 02:50:42;;;;;;;5.63;1.70;;;9.60;99.90;;;;;;5080032;28;20745;-39
2023/01/12 02:53:43;;;;;;;5.65;1.63;;;9.60;99.90;;;;;;5085028;28;20031;-38
2023/01/12 02:56:12;;;;;;;6.72;1.80;;;9.60;99.90;;;;;;5062560;28;20088;-39
2023/01/12 02:58:43;;;;;;;6.03;1.70;;;9.60;99.90;;;;;;5084577;28;20044;-38
2023/01/12 03:01:10;;;;;;;7.13;1.80;;;9.60;99.90;;;;;;5084354;28;20040;-37
2023/01/12 03:03:38;;;;;;;6.97;2.20;;;9.60;99.90;;;;;;5083795;28;20042;-39
2023/01/12 03:06:06;;;;;;;6.47;1.70;;;9.60;99.90;;;;;;5083581;28;20046;-38
2023/01/12 03:08:34;;;;;;;8.05;1.75;;;9.60;99.90;;;;;;5082915;28;20032;-39
2023/01/12 03:11:16;;;;;;;4.18;1.40;;;9.60;99.90;;;;;;5082722;28;20103;-41
2023/01/12 03:13:53;;;;;;;5.85;1.70;;;9.70;99.90;;;;;;5084295;28;20491;-37
2023/01/12 03:16:25;;;;;;;8.43;1.88;;;9.60;99.90;;;;;;5080690;28;20024;-37
2023/01/12 03:18:59;;;;;;;9.45;2.28;;;9.70;99.90;;;;;;5083967;28;20040;-37
2023/01/12 03:21:33;;;;;;;8.52;1.92;;;9.60;99.90;;;;;;5079716;28;20036;-40
2023/01/12 03:24:15;;;;;;;10.07;2.20;;;9.70;99.90;;;;;;5083054;28;20040;-39
2023/01/12 03:26:46;;;;;;;8.60;2.05;;;9.70;99.90;;;;;;5083923;28;20478;-41
2023/01/12 03:29:26;;;;;;;8.00;2.00;;;9.70;99.90;;;;;;5083356;28;20095;-39
2023/01/12 03:31:53;;;;;;;7.65;2.55;;;9.70;99.90;;;;;;5079652;28;20048;-36
2023/01/12 03:34:19;;;;;;;10.05;2.42;;;9.60;99.90;;;;;;5082443;28;20817;-39
2023/01/12 03:36:54;;;;;;;9.02;2.00;;;9.60;99.90;;;;;;5082150;28;20058;-38
2023/01/12 03:39:44;;;;;;;12.15;2.50;;;9.60;99.90;;;;;;5082358;28;20519;-39
2023/01/12 03:42:16;;;;;;;12.65;2.83;;;9.60;99.90;;;;;;5079826;28;20020;-39
2023/01/12 03:45:03;;;;;;;10.27;2.67;;;9.60;99.90;;;;;;5082460;28;20128;-36
2023/01/12 03:47:32;;;;;;;6.10;1.58;;;9.60;99.90;;;;;;5081619;28;20548;-37
2023/01/12 03:50:35;;;;;;;12.68;2.10;;;9.60;99.90;;;;;;5083789;28;20139;-38
2023/01/12 03:53:01;;;;;;;;;;;9.60;99.90;;;;;;5059100;28;20036;-36
2023/01/12 03:55:29;;;;;;;7.10;1.88;;;9.60;99.90;;;;;;5083641;28;19908;-39
2023/01/12 03:57:55;;;;;;;4.93;1.48;;;9.60;99.90;;;;;;5082970;28;20077;-39
2023/01/12 04:00:23;;;;;;;5.05;1.83;;;9.60;99.90;;;;;;5082184;28;20026;-39
2023/01/12 04:02:49;;;;;;;7.30;1.40;;;9.60;99.90;;;;;;5079577;28;20032;-33
2023/01/12 04:05:15;;;;;;;6.72;1.83;;;9.60;99.90;;;;;;5082581;28;20125;-38
2023/01/12 04:07:40;;;;;;;5.72;1.50;;;9.60;99.90;;;;;;5081988;28;20119;-39
2023/01/12 04:10:06;;;;;;;7.50;1.45;;;9.60;99.90;;;;;;5082401;28;20118;-37
2023/01/12 04:12:32;;;;;;;5.88;1.70;;;9.60;99.90;;;;;;5082761;28;20119;-38
2023/01/12 04:14:58;;;;;;;5.85;1.63;;;9.60;99.90;;;;;;5082272;28;20118;-36
2023/01/12 04:17:24;;;;;;;7.88;1.63;;;9.60;99.90;;;;;;5082410;28;20048;-39
2023/01/12 04:19:52;;;;;;;6.13;1.38;;;9.60;99.90;;;;;;5082232;28;20042;-39
2023/01/12 04:25:03;;;;;;;6.90;1.67;;;9.60;99.90;;;;;;5082786;28;20083;-38
2023/01/12 04:27:28;;;;;;;5.03;1.15;;;9.50;99.90;;;;;;5082383;28;20417;-39
2023/01/12 04:29:54;;;;;;;3.80;1.30;;;9.50;99.90;;;;;;5082718;28;20594;-39
2023/01/12 04:32:20;;;;;;;7.03;1.33;;;9.50;99.90;;;;;;5081885;28;20047;-34
2023/01/12 04:34:46;;;;;;;5.22;1.30;;;9.50;99.90;;;;;;5082498;28;20459;-39
2023/01/12 04:37:11;;;;;;;4.90;1.70;;;9.50;99.90;;;;;;5082293;28;20524;-38
2023/01/12 04:39:37;;;;;;;4.57;1.40;;;9.50;99.90;;;;;;5082621;28;20687;-39
2023/01/12 04:42:03;;;;;;;2.50;0.82;;;9.50;99.90;;;;;;5081596;28;20020;-37
2023/01/12 04:44:29;;;;;;;4.88;1.27;;;9.50;99.90;;;;;;5082484;28;20491;-38
2023/01/12 04:46:54;;;;;;;6.57;1.50;;;9.50;99.90;;;;;;5082244;28;20027;-35
2023/01/12 04:49:20;;;;;;;5.47;1.10;;;9.60;99.90;;;;;;5078301;28;20028;-39
2023/01/12 04:51:45;;;;;;;5.15;1.58;;;9.50;99.90;;;;;;5082904;28;20039;-36
2023/01/12 04:54:11;;;;;;;3.97;1.23;;;9.60;99.90;;;;;;5081797;28;20464;-39
2023/01/12 04:56:37;;;;;;;8.02;1.40;;;9.60;99.90;;;;;;5081577;28;20189;-38
2023/01/12 04:59:05;;;;;;;7.18;1.50;;;9.60;99.90;;;;;;5081633;28;20028;-37
2023/01/12 05:01:30;;;;;;;5.60;1.50;;;9.60;99.90;;;;;;5062510;28;20423;-39
2023/01/12 05:04:01;;;;;;;4.97;1.35;;;9.60;99.90;;;;;;5076026;28;20024;-40
2023/01/12 05:06:27;;;;;;;5.78;1.38;;;9.60;99.90;;;;;;5082982;28;20024;-34
2023/01/12 05:11:37;;;;;;;4.93;1.60;;;9.60;99.90;;;;;;5082335;28;20039;-36
2023/01/12 05:14:04;;;;;;;4.32;1.10;;;9.60;99.90;;;;;;5081996;28;20027;-39
2023/01/12 05:16:29;;;;;;;3.92;1.48;;;9.50;99.90;;;;;;5082399;28;20031;-37
2023/01/12 05:18:55;;;;;;;6.20;1.42;;;9.50;99.90;;;;;;5081895;28;20035;-38
2023/01/12 05:21:22;;;;;;;5.60;1.10;;;9.60;99.90;;;;;;5081991;28;20036;-39
2023/01/12 05:23:49;;;;;;;3.20;1.08;;;9.60;99.90;;;;;;5081234;28;20462;-35
2023/01/12 05:26:14;;;;;;;3.13;1.10;;;9.60;99.90;;;;;;5082063;28;20788;-36
2023/01/12 05:28:40;;;;;;;3.35;1.10;;;9.60;99.90;;;;;;5082097;28;20032;-38
2023/01/12 05:31:11;;;;;;;4.38;1.10;;;9.60;99.90;;;;;;5082955;28;20375;-35
2023/01/12 05:33:40;;;;;;;4.00;1.10;;;9.60;99.90;;;;;;5085598;28;20553;-39
2023/01/12 05:36:11;;;;;;;6.43;1.25;;;9.60;99.90;;;;;;5085567;28;20106;-39
2023/01/12 05:38:37;;;;;;;4.55;1.05;;;9.60;99.90;;;;;;5085073;28;20089;-39
2023/01/12 05:41:06;;;;;;;3.88;1.08;;;9.60;99.90;;;;;;5084908;28;20020;-39
2023/01/12 05:43:50;;;;;;;4.28;1.10;;;9.60;99.90;;;;;;5085828;28;20032;-37
2023/01/12 05:46:29;;;;;;;4.47;1.25;;;9.60;99.90;;;;;;5084858;28;20024;-36
2023/01/12 05:48:56;;;;;;;4.60;1.10;;;9.60;99.90;;;;;;5085460;28;20788;-38
2023/01/12 05:51:26;;;;;;;4.57;1.00;;;9.60;99.90;;;;;;5084200;28;20792;-34
2023/01/12 05:53:51;;;;;;;6.03;1.50;;;9.60;99.90;;;;;;5085733;28;20036;-32
2023/01/12 05:56:24;;;;;;;6.03;1.40;;;9.60;99.90;;;;;;5084656;28;20052;-35
2023/01/12 05:58:51;;;;;;;3.28;1.30;;;9.60;99.90;;;;;;5084774;28;20056;-36
2023/01/12 06:01:18;;;;;;;5.05;1.20;;;9.60;99.90;;;;;;5085420;28;20481;-38
2023/01/12 06:03:51;;;;;;;3.67;1.00;;;9.60;99.90;;;;;;5085572;28;20032;-36
2023/01/12 06:06:17;;;;;;;;;;;9.60;99.90;;;;;;5084788;28;20422;-38
2023/01/12 06:08:43;;;;;;;2.85;0.95;;;9.60;99.90;;;;;;5085496;28;20000;-38
2023/01/12 06:13:55;;;;;;;6.75;1.27;;;9.60;99.90;;;;;;5084158;28;20102;-36
2023/01/12 06:13:57;;;;;;;3.88;1.08;;;9.60;99.90;;;;;;5064574;28;20043;-38
2023/01/12 06:16:23;;;;;;;4.03;1.13;;;9.60;99.90;;;;;;5079926;28;20020;-38
2023/01/12 06:18:49;;;;;;;3.20;0.95;;;9.60;99.90;;;;;;5085571;28;20043;-38
2023/01/12 06:21:17;;;;;;;4.53;1.10;;;9.60;99.90;;;;;;5084175;28;20031;-38
2023/01/12 06:23:46;;;;;;;5.60;0.95;;;9.60;99.90;;;;;;5084860;28;20031;-37
2023/01/12 06:26:11;;;;;;;3.75;1.05;;;9.60;99.90;;;;;;5084087;28;20429;-32
2023/01/12 06:28:39;;;;;;;3.80;0.90;;;9.70;99.90;;;;;;5084986;28;20053;-36
2023/01/12 06:31:07;;;;;;;3.95;1.05;;;9.70;99.90;;;;;;5084792;28;20028;-36
2023/01/12 06:33:34;;;;;;;4.10;1.20;;;9.70;99.90;;;;;;5084397;28;20542;-39
2023/01/12 06:36:00;;;;;;;3.85;0.90;;;9.70;99.90;;;;;;5084000;28;20073;-40
2023/01/12 06:38:27;;;;;;;3.92;1.00;;;9.70;99.90;;;;;;5085058;28;20037;-36
2023/01/12 06:41:00;;;;;;;2.70;0.90;;;9.70;99.90;;;;;;5084346;28;20024;-36
2023/01/12 06:43:25;;;;;;;2.22;0.80;;;9.70;99.90;;;;;;5085536;28;20127;-36
2023/01/12 06:45:54;;;;;;;4.57;0.70;;;9.80;99.90;;;;;;5084518;28;20031;-35
2023/01/12 06:48:21;;;;;;;3.13;0.90;;;9.80;99.90;;;;;;5079561;28;20379;-38
2023/01/12 06:50:47;;;;;;;2.97;0.95;;;9.80;99.90;;;;;;5084863;28;20032;-39
2023/01/12 06:53:13;;;;;;;4.03;0.90;;;9.80;99.90;;;;;;5083844;28;20104;-38
2023/01/12 06:55:38;;;;;;;1.98;0.80;;;9.80;99.90;;;;;;5085590;28;20027;-37
2023/01/12 06:58:04;;;;;;;2.80;0.85;;;9.90;99.90;;;;;;5083108;28;20050;-38
2023/01/12 07:00:30;;;;;;;2.65;1.00;;;9.80;99.90;;;;;;5082038;28;20054;-39
2023/01/12 07:02:56;;;;;;;2.45;0.80;;;9.90;99.90;;;;;;5082289;28;20032;-40
2023/01/12 07:05:22;;;;;;;2.85;1.30;;;9.90;99.90;;;;;;5083799;28;20028;-39
2023/01/12 07:07:48;;;;;;;3.05;0.82;;;9.90;99.90;;;;;;5083384;28;20065;-39
2023/01/12 07:10:14;;;;;;;1.33;0.70;;;9.90;99.90;;;;;;5082605;28;20028;-37
2023/01/12 07:12:39;;;;;;;2.15;0.70;;;9.90;99.90;;;;;;5083365;28;20016;-39
2023/01/12 07:15:06;;;;;;;0.88;0.57;;;10.00;99.90;;;;;;5082622;28;20035;-35
2023/01/12 07:17:31;;;;;;;1.45;0.75;;;10.00;99.90;;;;;;5082409;28;20071;-36
2023/01/12 07:19:57;;;;;;;3.22;0.95;;;10.00;99.90;;;;;;5083203;28;20071;-38
2023/01/12 07:22:22;;;;;;;1.73;1.00;;;10.00;99.90;;;;;;5082373;28;20020;-38
2023/01/12 07:24:48;;;;;;;2.60;1.00;;;10.00;99.90;;;;;;5081592;28;20035;-38
2023/01/12 07:27:14;;;;;;;1.33;0.90;;;10.00;99.90;;;;;;5082775;28;20080;-39
2023/01/12 07:29:39;;;;;;;2.15;0.88;;;10.10;99.90;;;;;;5082112;28;20031;-39
2023/01/12 07:32:05;;;;;;;2.67;0.90;;;10.00;99.90;;;;;;5082097;28;20043;-39
2023/01/12 07:34:31;;;;;;;1.20;0.80;;;10.10;99.90;;;;;;5082195;28;20484;-39
2023/01/12 07:36:59;;;;;;;2.88;1.10;;;10.10;99.90;;;;;;5082509;28;20103;-39
2023/01/12 07:39:26;;;;;;;2.63;1.05;;;10.10;99.90;;;;;;5083448;28;20055;-39
2023/01/12 07:44:36;;;;;;;1.75;1.00;;;10.10;99.90;;;;;;5082612;28;20438;-36
2023/01/12 07:47:01;;;;;;;2.55;1.08;;;10.10;99.90;;;;;;5081950;28;20020;-38
2023/01/12 07:49:27;;;;;;;3.58;1.10;;;10.10;99.90;;;;;;5082613;28;20463;-37
2023/01/12 07:51:53;;;;;;;2.95;1.00;;;10.10;99.90;;;;;;5082374;28;20024;-38
2023/01/12 07:54:20;;;;;;;1.67;1.10;;;10.20;99.90;;;;;;5081851;28;20217;-40
2023/01/12 07:56:46;;;;;;;1.20;0.90;;;10.20;99.90;;;;;;5083196;28;20043;-37
2023/01/12 07:59:14;;;;;;;2.17;0.90;;;10.20;99.90;;;;;;5081259;28;20495;-34
2023/01/12 08:01:40;;;;;;;1.67;1.00;;;10.20;99.90;;;;;;5083411;28;20081;-37
2023/01/12 08:04:06;;;;;;;1.52;1.08;;;10.20;99.90;;;;;;5082219;28;20031;-38
2023/01/12 08:06:33;;;;;;;2.70;1.00;;;10.20;99.90;;;;;;5083464;28;20020;-40
2023/01/12 08:08:58;;;;;;;1.85;1.10;;;10.20;99.90;;;;;;5082391;28;20103;-37
2023/01/12 08:11:24;;;;;;;2.42;1.08;;;10.30;99.90;;;;;;5082623;28;20162;-38
2023/01/12 08:13:54;;;;;;;1.55;1.27;;;10.30;99.90;;;;;;5081883;28;20866;-39
2023/01/12 08:16:25;;;;;;;1.63;0.98;;;10.30;99.90;;;;;;5082414;28;20107;-38
2023/01/12 08:18:57;;;;;;;1.75;1.13;;;10.30;99.90;;;;;;5081677;28;20814;-38
2023/01/12 08:21:27;;;;;;;2.42;1.45;;;10.30;99.90;;;;;;5082346;28;20039;-38
2023/01/12 08:23:56;;;;;;;2.72;1.50;;;10.30;99.90;;;;;;5083259;28;20116;-38
2023/01/12 08:26:27;;;;;;;2.28;1.40;;;10.30;99.90;;;;;;5081515;28;20039;-39
2023/01/12 08:29:12;;;;;;;1.52;1.25;;;10.30;99.90;;;;;;5082559;28;20028;-39
2023/01/12 08:31:38;;;;;;;2.70;1.48;;;10.30;99.90;;;;;;5081822;28;20031;-39
2023/01/12 08:34:06;;;;;;;2.28;1.30;;;10.30;99.90;;;;;;5081629;28;20040;-39
2023/01/12 08:36:32;;;;;;;2.15;1.50;;;10.40;99.90;;;;;;5082093;28;20449;-39
2023/01/12 08:39:00;;;;;;;1.95;1.10;;;10.40;99.90;;;;;;5081720;28;20040;-37
2023/01/12 08:41:31;;;;;;;1.55;1.45;;;10.40;99.90;;;;;;5081941;28;20031;-38
2023/01/12 08:44:02;;;;;;;1.85;1.48;;;10.40;99.90;;;;;;5062412;28;20034;-37
2023/01/12 08:46:33;;;;;;;2.22;1.48;;;10.40;99.90;;;;;;5077714;28;20028;-36
2023/01/12 08:49:00;;;;;;;2.60;1.70;;;10.40;99.90;;;;;;5081967;28;20024;-39
2023/01/12 08:51:25;;;;;;;2.08;1.75;;;10.40;99.90;;;;;;5082082;28;20593;-36
2023/01/12 08:53:51;;;;;;;1.80;1.70;;;10.50;99.90;;;;;;5082665;28;20028;-39
2023/01/12 08:56:20;;;;;;;1.65;1.55;;;10.40;99.90;;;;;;5081316;28;20484;-40
2023/01/12 08:58:46;;;;;;;3.95;1.55;;;10.50;99.90;;;;;;5082425;28;20043;-38
2023/01/12 09:01:14;;;;;;;1.88;1.58;;;10.50;99.90;;;;;;5081156;28;20020;-38
2023/01/12 09:03:40;;;;;;;1.50;1.40;;;10.50;99.90;;;;;;5080362;28;20047;-37
2023/01/12 09:06:17;;;;;;;1.83;1.67;;;10.50;99.90;;;;;;5082451;28;20046;-37
2023/01/12 09:08:43;;;;;;;2.47;1.60;;;10.50;99.90;;;;;;5085054;28;20031;-39
2023/01/12 09:11:10;;;;;;;2.00;1.70;;;10.50;99.90;;;;;;5084393;28;20016;-39
2023/01/12 09:13:35;;;;;;;1.83;1.60;;;10.50;99.90;;;;;;5073873;28;20032;-38
2023/01/12 09:16:03;;;;;;;2.25;1.60;;;10.50;99.90;;;;;;5084584;28;20414;-38
2023/01/12 09:18:28;;;;;;;2.03;1.60;;;10.50;99.90;;;;;;5086242;28;20044;-36
2023/01/12 09:21:06;;;;;;;2.13;1.75;;;10.50;99.90;;;;;;5085638;28;20372;-37
2023/01/12 09:23:32;;;;;;;1.77;1.67;;;10.60;99.90;;;;;;5081759;28;20028;-36
2023/01/12 09:26:06;;;;;;;2.28;1.80;;;10.60;99.90;;;;;;5085538;28;20024;-39
2023/01/12 09:28:32;;;;;;;5.40;1.65;;;10.60;99.90;;;;;;5085118;28;20028;-37
2023/01/12 09:31:06;;;;;;;2.00;1.77;;;10.60;99.90;;;;;;5085195;28;20095;-38
2023/01/12 09:33:32;;;;;;;1.92;1.48;;;10.60;99.90;;;;;;5085466;28;20055;-38
2023/01/12 09:36:13;;;;;;;2.08;1.45;;;10.70;99.90;;;;;;5084279;28;20158;-39
2023/01/12 09:38:40;;;;;;;1.60;1.50;;;10.70;99.90;;;;;;5086119;28;20032;-35
2023/01/12 09:47:08;;;;;;;1.52;1.30;;;10.70;99.90;;;;;;5084652;28;20118;-38
2023/01/12 09:49:42;;;;;;;1.70;1.20;;;10.80;99.90;;;;;;5085790;28;20035;-37
2023/01/12 09:52:30;;;;;;;1.08;1.05;;;10.80;99.90;;;;;;5084355;28;20020;-38
2023/01/12 09:54:56;;;;;;;1.35;0.90;;;10.80;99.90;;;;;;5085494;28;20078;-37
2023/01/12 09:57:53;;;;;;;1.50;1.13;;;10.80;99.90;;;;;;5084838;28;20539;-37
2023/01/12 10:00:20;;;;;;;0.80;0.80;;;10.90;99.90;;;;;;5075450;28;20379;-39
2023/01/12 10:03:00;;;;;;;1.02;0.80;;;10.90;99.90;;;;;;5085549;28;20046;-39
2023/01/12 10:05:37;;;;;;;0.95;0.93;;;10.90;99.90;;;;;;5074584;28;20020;-39
2023/01/12 10:08:03;;;;;;;0.98;0.98;;;10.90;99.90;;;;;;5084166;28;20024;-37
2023/01/12 10:10:28;;;;;;;2.30;1.10;;;10.90;99.90;;;;;;5073735;28;20043;-39
2023/01/12 10:12:59;;;;;;;1.48;1.00;;;10.90;99.90;;;;;;5084506;28;21190;-37
2023/01/12 10:15:27;;;;;;;0.90;0.88;;;11.00;99.90;;;;;;5083911;28;20403;-39
2023/01/12 10:18:11;;;;;;;1.10;1.00;;;11.00;99.90;;;;;;5084508;28;20063;-38
2023/01/12 10:20:41;;;;;;;2.78;1.13;;;11.00;99.90;;;;;;5082623;28;20028;-38
2023/01/12 10:23:06;;;;;;;1.17;1.08;;;11.10;99.90;;;;;;5085005;28;20391;-38
2023/01/12 10:25:44;;;;;;;1.00;1.00;;;11.00;99.90;;;;;;5084326;28;20028;-37
2023/01/12 10:28:28;;;;;;;1.33;1.10;;;11.10;99.90;;;;;;5084135;28;20032;-38
2023/01/12 10:30:55;;;;;;;1.75;1.20;;;11.10;99.90;;;;;;5083107;28;20024;-37
2023/01/12 10:33:26;;;;;;;1.05;1.00;;;11.00;99.90;;;;;;5083701;28;20047;-37
2023/01/12 10:35:59;;;;;;;1.10;1.00;;;11.10;99.90;;;;;;5085188;28;20380;-39
2023/01/12 10:38:37;;;;;;;1.98;1.42;;;11.10;99.90;;;;;;5085232;28;20036;-37
2023/01/12 10:41:13;;;;;;;1.40;1.30;;;11.10;99.90;;;;;;5082518;28;20032;-39
2023/01/12 10:43:40;;;;;;;1.10;1.00;;;11.00;99.90;;;;;;5084704;28;20065;-38
2023/01/12 10:46:20;;;;;;;0.95;0.90;;;11.00;99.90;;;;;;5082944;28;20024;-38
2023/01/12 10:48:51;;;;;;;1.00;1.00;;;11.10;99.90;;;;;;5084748;28;20140;-39
2023/01/12 10:51:29;;;;;;;0.77;0.77;;;11.10;99.90;;;;;;5082752;28;20523;-39
2023/01/12 10:54:16;;;;;;;0.70;0.70;;;11.10;99.90;;;;;;5084155;28;20026;-39
2023/01/12 10:56:52;;;;;;;0.70;0.70;;;11.10;99.90;;;;;;5084859;28;20030;-37
2023/01/12 10:59:21;;;;;;;0.82;0.60;;;11.10;99.90;;;;;;5083212;28;20036;-39
2023/01/12 11:02:12;;;;;;;0.43;0.40;;;11.10;99.90;;;;;;5080282;28;20012;-40
2023/01/12 11:04:41;;;;;;;0.60;0.60;;;11.10;99.90;;;;;;5083104;28;20028;-38
2023/01/12 11:07:12;;;;;;;0.40;0.40;;;11.20;99.90;;;;;;5083935;28;20031;-36
2023/01/12 11:09:39;;;;;;;0.85;0.65;;;11.20;99.90;;;;;;5084173;28;20149;-35
2023/01/12 11:12:24;;;;;;;1.30;0.50;;;11.20;99.90;;;;;;5084040;28;20085;-39
2023/01/12 11:15:08;;;;;;;0.50;0.50;;;11.20;99.90;;;;;;5083192;28;20435;-39
2023/01/12 11:17:46;;;;;;;0.65;0.60;;;11.20;99.90;;;;;;5082622;28;20035;-38
2023/01/12 11:20:15;;;;;;;1.10;0.50;;;11.20;99.90;;;;;;5082865;28;20036;-38
2023/01/12 11:22:43;;;;;;;0.50;0.40;;;11.30;99.90;;;;;;5082743;28;20051;-42
2023/01/12 11:25:20;;;;;;;0.50;0.50;;;11.30;99.90;;;;;;5083345;28;20073;-39
2023/01/12 11:27:51;;;;;;;0.60;0.52;;;11.30;99.90;;;;;;5081038;28;20031;-36
2023/01/12 11:30:44;;;;;;;0.93;0.52;;;11.30;99.90;;;;;;5082490;28;20024;-37
2023/01/12 11:33:16;;;;;;;0.50;0.50;;;11.30;99.90;;;;;;5082401;28;20060;-37
2023/01/12 11:36:08;;;;;;;0.60;0.60;;;11.40;99.90;;;;;;5083476;28;20491;-37
2023/01/12 11:38:42;;;;;;;1.40;0.60;;;11.30;99.90;;;;;;5066910;28;20481;-37
2023/01/12 11:44:43;;;;;;;1.73;1.27;;;11.40;99.90;;;;;;5071045;28;20671;-39
2023/01/12 11:47:30;;;;;;;1.52;1.35;;;11.40;99.90;;;;;;5083029;28;20105;-40
2023/01/12 11:50:29;;;;;;;2.15;1.35;;;11.40;99.90;;;;;;5082836;28;20123;-35
2023/01/12 11:52:58;;;;;;;1.38;1.08;;;11.40;99.90;;;;;;5082544;28;20078;-38
2023/01/12 11:55:52;;;;;;;1.00;1.00;;;11.40;99.90;;;;;;5084510;28;20105;-39
2023/01/12 11:58:42;;;;;;;0.93;0.90;;;11.40;99.90;;;;;;5081369;28;20927;-36
2023/01/12 12:01:14;;;;;;;1.27;0.80;;;11.40;99.90;;;;;;5082626;28;20024;-37
2023/01/12 12:03:47;;;;;;;;;;;11.40;99.90;;;;;;5083761;28;20062;-39
2023/01/12 12:06:32;;;;;;;;;;;11.40;99.90;;;;;;5082375;28;20015;-39
2023/01/12 12:09:19;;;;;;;0.80;0.80;;;11.40;99.90;;;;;;5082653;28;19933;-39
2023/01/12 12:12:01;;;;;;;0.70;0.70;;;11.40;99.90;;;;;;5082432;28;20085;-39
2023/01/12 12:14:48;;;;;;;0.60;0.60;;;11.40;99.90;;;;;;5083724;28;20032;-38
2023/01/12 12:17:19;;;;;;;0.50;0.50;;;11.40;99.90;;;;;;5081956;28;20036;-39
2023/01/12 12:19:58;;;;;;;1.60;0.90;;;11.40;99.90;;;;;;5082088;28;20419;-36
2023/01/12 12:22:26;;;;;;;0.60;0.60;;;11.40;99.90;;;;;;5082940;28;20114;-38
2023/01/12 12:25:01;;;;;;;0.68;0.68;;;11.40;99.90;;;;;;5082683;28;20024;-39
2023/01/12 12:27:41;;;;;;;0.70;0.70;;;11.40;99.90;;;;;;5082665;28;20040;-39
2023/01/12 12:30:35;;;;;;;0.77;0.70;;;11.40;99.90;;;;;;5081808;28;20382;-37
2023/01/12 12:33:30;;;;;;;0.80;0.80;;;11.40;99.90;;;;;;5081399;28;20672;-38
2023/01/12 12:36:22;;;;;;;1.20;1.10;;;11.40;99.90;;;;;;5082775;28;20484;-39
2023/01/12 12:39:24;;;;;;;0.85;0.85;;;11.40;99.90;;;;;;5083211;28;20073;-39
2023/01/12 12:45:16;;;;;;;0.88;0.88;;;11.40;99.90;;;;;;5089685;28;20183;-38
2023/01/12 12:48:06;;;;;;;0.90;0.90;;;11.40;99.90;;;;;;5089506;28;20102;-37
2023/01/12 12:50:45;;;;;;;0.80;0.80;;;11.40;99.90;;;;;;5089717;28;20038;-39
2023/01/12 12:53:31;;;;;;;1.17;1.08;;;11.40;99.90;;;;;;5087578;28;20498;-39
2023/01/12 12:56:02;;;;;;;1.40;1.30;;;11.40;99.90;;;;;;5089679;28;20097;-39
2023/01/12 12:58:38;;;;;;;1.33;1.05;;;11.40;99.90;;;;;;5089442;28;20042;-35
2023/01/12 13:01:19;;;;;;;1.10;1.10;;;11.40;99.90;;;;;;5088435;28;20089;-38
2023/01/12 13:03:46;;;;;;;1.35;1.15;;;11.40;99.90;;;;;;5089227;28;20028;-40
2023/01/12 13:06:36;;;;;;;1.58;1.30;;;11.40;99.90;;;;;;5088472;28;20828;-36
2023/01/12 13:09:15;;;;;;;0.90;0.90;;;11.40;99.90;;;;;;5088332;28;20073;-36
2023/01/12 13:11:59;;;;;;;0.70;0.70;;;11.40;99.90;;;;;;5079781;28;20043;-35
2023/01/12 13:14:29;;;;;;;0.85;0.85;;;11.40;99.90;;;;;;5089357;28;20030;-39
2023/01/12 13:17:01;;;;;;;0.70;0.70;;;11.40;99.90;;;;;;5090360;28;20061;-39
2023/01/12 13:19:37;;;;;;;0.75;0.60;;;11.50;99.90;;;;;;5089338;28;20101;-37
2023/01/12 13:22:26;;;;;;;1.50;0.80;;;11.50;99.90;;;;;;5088290;28;20024;-38
2023/01/12 13:24:52;;;;;;;0.70;0.70;;;11.40;99.90;;;;;;5089264;28;20640;-37
2023/01/12 13:27:58;;;;;;;1.17;1.00;;;11.40;99.90;;;;;;5088651;28;20130;-38
2023/01/12 13:30:27;;;;;;;1.23;1.00;;;11.40;99.90;;;;;;5088022;28;20040;-33
2023/01/12 13:33:11;;;;;;;0.90;0.90;;;11.40;99.90;;;;;;5089367;28;20043;-38
2023/01/12 13:35:41;;;;;;;1.08;1.00;;;11.30;99.90;;;;;;5088617;28;20135;-36
2023/01/12 13:38:25;;;;;;;1.20;1.10;;;11.30;99.90;;;;;;5088773;28;20040;-36
2023/01/12 13:40:51;;;;;;;1.35;1.25;;;11.30;99.90;;;;;;5088865;28;20897;-34
2023/01/12 13:43:25;;;;;;;1.75;1.10;;;11.30;99.90;;;;;;5087716;28;20032;-38
2023/01/12 13:46:09;;;;;;;1.60;1.30;;;11.30;99.90;;;;;;5089576;28;20032;-37
2023/01/12 13:48:35;;;;;;;1.10;1.10;;;11.20;99.90;;;;;;5089334;28;20139;-37